sensor_id;sensor_type;location;lat;lon;timestamp;pressure;altitude;pressure_sealevel;temperature;humidity
76594;BME280;65482;50.240;14.302;2023-08-21T00:00:45;100040.22;;;22.53;70.87
76594;BME280;65482;50.240;14.302;2023-08-21T00:03:32;100030.53;;;22.52;70.71
76594;BME280;65482;50.240;14.302;2023-08-21T00:05:57;100039.94;;;22.43;71.03
76594;BME280;65482;50.240;14.302;2023-08-21T00:08:23;100033.97;;;22.41;71.25
76594;BME280;65482;50.240;14.302;2023-08-21T00:10:49;100031.97;;;22.36;71.45
76594;BME280;65482;50.240;14.302;2023-08-21T00:13:14;100032.78;;;22.37;70.99
76594;BME280;65482;50.240;14.302;2023-08-21T00:15:40;100029.28;;;22.36;71.24
76594;BME280;65482;50.240;14.302;2023-08-21T00:18:06;100025.75;;;22.36;71.20
76594;BME280;65482;50.240;14.302;2023-08-21T00:20:31;100024.13;;;22.35;71.13
76594;BME280;65482;50.240;14.302;2023-08-21T00:22:57;100027.03;;;22.33;71.06
76594;BME280;65482;50.240;14.302;2023-08-21T00:25:23;100018.16;;;22.33;71.10
76594;BME280;65482;50.240;14.302;2023-08-21T00:27:48;100021.88;;;22.32;70.92
76594;BME280;65482;50.240;14.302;2023-08-21T00:30:14;100016.97;;;22.29;71.13
76594;BME280;65482;50.240;14.302;2023-08-21T00:32:41;100017.63;;;22.24;71.31
76594;BME280;65482;50.240;14.302;2023-08-21T00:35:07;100018.66;;;22.23;71.33
76594;BME280;65482;50.240;14.302;2023-08-21T00:37:32;100021.56;;;22.21;71.42
76594;BME280;65482;50.240;14.302;2023-08-21T00:39:58;100023.88;;;22.18;71.52
76594;BME280;65482;50.240;14.302;2023-08-21T00:42:23;100029.13;;;22.13;71.74
76594;BME280;65482;50.240;14.302;2023-08-21T00:44:49;100013.66;;;22.08;71.78
76594;BME280;65482;50.240;14.302;2023-08-21T00:47:15;100014.94;;;22.05;71.58
76594;BME280;65482;50.240;14.302;2023-08-21T00:49:41;100010.84;;;22.03;71.97
76594;BME280;65482;50.240;14.302;2023-08-21T00:52:08;100014.16;;;21.98;71.86
76594;BME280;65482;50.240;14.302;2023-08-21T00:54:36;100020.16;;;22.00;71.99
76594;BME280;65482;50.240;14.302;2023-08-21T00:57:02;100015.22;;;21.97;71.89
76594;BME280;65482;50.240;14.302;2023-08-21T00:59:28;100022.91;;;21.94;72.00
76594;BME280;65482;50.240;14.302;2023-08-21T01:01:54;100016.34;;;21.90;72.12
76594;BME280;65482;50.240;14.302;2023-08-21T01:04:20;100028.13;;;21.89;72.15
76594;BME280;65482;50.240;14.302;2023-08-21T01:06:48;100023.19;;;21.85;72.25
76594;BME280;65482;50.240;14.302;2023-08-21T01:09:50;100027.16;;;21.83;72.18
76594;BME280;65482;50.240;14.302;2023-08-21T01:15:08;100033.78;;;21.80;72.47
76594;BME280;65482;50.240;14.302;2023-08-21T01:17:36;100027.78;;;21.78;72.54
76594;BME280;65482;50.240;14.302;2023-08-21T01:20:03;100028.69;;;21.72;72.65
76594;BME280;65482;50.240;14.302;2023-08-21T01:22:38;100028.94;;;21.71;72.61
76594;BME280;65482;50.240;14.302;2023-08-21T01:25:05;100034.50;;;21.69;72.64
76594;BME280;65482;50.240;14.302;2023-08-21T01:27:31;100028.53;;;21.67;72.67
76594;BME280;65482;50.240;14.302;2023-08-21T01:29:57;100033.53;;;21.63;72.89
76594;BME280;65482;50.240;14.302;2023-08-21T01:32:27;100039.50;;;21.65;72.88
76594;BME280;65482;50.240;14.302;2023-08-21T01:34:55;100046.75;;;21.65;72.66
76594;BME280;65482;50.240;14.302;2023-08-21T01:37:22;100039.91;;;21.62;72.65
76594;BME280;65482;50.240;14.302;2023-08-21T01:39:49;100040.00;;;21.56;72.87
76594;BME280;65482;50.240;14.302;2023-08-21T01:42:14;100037.59;;;21.48;73.13
76594;BME280;65482;50.240;14.302;2023-08-21T01:44:40;100032.25;;;21.41;73.25
76594;BME280;65482;50.240;14.302;2023-08-21T01:47:05;100035.06;;;21.53;72.97
76594;BME280;65482;50.240;14.302;2023-08-21T01:49:31;100037.38;;;21.49;73.02
76594;BME280;65482;50.240;14.302;2023-08-21T01:51:57;100042.94;;;21.48;73.09
76594;BME280;65482;50.240;14.302;2023-08-21T01:54:22;100051.44;;;21.44;73.18
76594;BME280;65482;50.240;14.302;2023-08-21T01:56:48;100043.38;;;21.44;73.31
76594;BME280;65482;50.240;14.302;2023-08-21T01:59:16;100035.41;;;21.31;73.66
76594;BME280;65482;50.240;14.302;2023-08-21T02:01:42;100033.72;;;21.37;73.33
76594;BME280;65482;50.240;14.302;2023-08-21T02:04:08;100031.25;;;21.35;73.39
76594;BME280;65482;50.240;14.302;2023-08-21T02:06:33;100025.72;;;21.30;73.42
76594;BME280;65482;50.240;14.302;2023-08-21T02:08:59;100028.25;;;21.25;73.76
76594;BME280;65482;50.240;14.302;2023-08-21T02:11:24;100023.50;;;21.20;73.66
76594;BME280;65482;50.240;14.302;2023-08-21T02:13:50;100018.59;;;21.17;74.21
76594;BME280;65482;50.240;14.302;2023-08-21T02:16:15;100026.03;;;21.15;73.86
76594;BME280;65482;50.240;14.302;2023-08-21T02:18:41;100028.34;;;21.12;74.29
76594;BME280;65482;50.240;14.302;2023-08-21T02:21:06;100028.16;;;21.06;74.21
76594;BME280;65482;50.240;14.302;2023-08-21T02:23:32;100031.88;;;21.05;74.07
76594;BME280;65482;50.240;14.302;2023-08-21T02:25:58;100033.97;;;21.03;74.26
76594;BME280;65482;50.240;14.302;2023-08-21T02:28:23;100034.38;;;21.00;74.23
76594;BME280;65482;50.240;14.302;2023-08-21T02:30:49;100033.78;;;20.98;74.56
76594;BME280;65482;50.240;14.302;2023-08-21T02:33:15;100022.25;;;20.98;74.45
76594;BME280;65482;50.240;14.302;2023-08-21T02:35:40;100034.44;;;20.94;74.65
76594;BME280;65482;50.240;14.302;2023-08-21T02:38:06;100036.50;;;20.92;74.68
76594;BME280;65482;50.240;14.302;2023-08-21T02:40:31;100036.94;;;20.89;74.75
76594;BME280;65482;50.240;14.302;2023-08-21T02:42:57;100039.25;;;20.85;74.95
76594;BME280;65482;50.240;14.302;2023-08-21T02:45:23;100040.25;;;20.84;74.50
76594;BME280;65482;50.240;14.302;2023-08-21T02:47:49;100039.25;;;20.78;75.11
76594;BME280;65482;50.240;14.302;2023-08-21T02:50:14;100045.69;;;20.71;75.43
76594;BME280;65482;50.240;14.302;2023-08-21T02:52:40;100043.44;;;20.68;75.38
76594;BME280;65482;50.240;14.302;2023-08-21T02:55:05;100044.47;;;20.66;75.56
76594;BME280;65482;50.240;14.302;2023-08-21T02:57:31;100050.03;;;20.65;75.61
76594;BME280;65482;50.240;14.302;2023-08-21T02:59:57;100040.97;;;20.66;76.00
76594;BME280;65482;50.240;14.302;2023-08-21T03:02:23;100037.91;;;20.56;76.27
76594;BME280;65482;50.240;14.302;2023-08-21T03:04:49;100048.22;;;20.52;76.22
76594;BME280;65482;50.240;14.302;2023-08-21T03:07:15;100051.91;;;20.51;76.41
76594;BME280;65482;50.240;14.302;2023-08-21T03:09:41;100054.59;;;20.51;76.49
76594;BME280;65482;50.240;14.302;2023-08-21T03:12:07;100047.81;;;20.49;76.57
76594;BME280;65482;50.240;14.302;2023-08-21T03:14:33;100053.81;;;20.44;77.01
76594;BME280;65482;50.240;14.302;2023-08-21T03:16:59;100055.44;;;20.45;77.30
76594;BME280;65482;50.240;14.302;2023-08-21T03:19:24;100054.03;;;20.42;76.75
76594;BME280;65482;50.240;14.302;2023-08-21T03:21:50;100065.31;;;20.58;76.67
76594;BME280;65482;50.240;14.302;2023-08-21T03:24:16;100059.13;;;20.57;76.78
76594;BME280;65482;50.240;14.302;2023-08-21T03:26:42;100055.22;;;20.60;76.43
76594;BME280;65482;50.240;14.302;2023-08-21T03:29:07;100054.19;;;20.61;76.36
76594;BME280;65482;50.240;14.302;2023-08-21T03:31:33;100052.34;;;20.61;76.33
76594;BME280;65482;50.240;14.302;2023-08-21T03:33:58;100053.16;;;20.62;76.35
76594;BME280;65482;50.240;14.302;2023-08-21T03:36:24;100047.34;;;20.65;75.98
76594;BME280;65482;50.240;14.302;2023-08-21T03:38:59;100049.88;;;20.60;76.21
76594;BME280;65482;50.240;14.302;2023-08-21T03:41:25;100048.63;;;20.49;76.46
76594;BME280;65482;50.240;14.302;2023-08-21T03:43:51;100051.53;;;20.48;76.92
76594;BME280;65482;50.240;14.302;2023-08-21T03:46:16;100042.91;;;20.45;76.91
76594;BME280;65482;50.240;14.302;2023-08-21T03:48:42;100036.69;;;20.45;76.90
76594;BME280;65482;50.240;14.302;2023-08-21T03:51:08;100035.88;;;20.44;77.02
76594;BME280;65482;50.240;14.302;2023-08-21T03:53:33;100038.75;;;20.43;76.93
76594;BME280;65482;50.240;14.302;2023-08-21T03:55:59;100028.91;;;20.43;77.13
76594;BME280;65482;50.240;14.302;2023-08-21T03:58:24;100028.50;;;20.40;77.13
76594;BME280;65482;50.240;14.302;2023-08-21T04:00:53;100030.53;;;20.44;76.86
76594;BME280;65482;50.240;14.302;2023-08-21T04:03:19;100038.38;;;20.39;76.92
76594;BME280;65482;50.240;14.302;2023-08-21T04:05:44;100048.66;;;20.42;76.85
76594;BME280;65482;50.240;14.302;2023-08-21T04:08:10;100040.22;;;20.39;76.90
76594;BME280;65482;50.240;14.302;2023-08-21T04:10:36;100040.84;;;20.41;76.81
76594;BME280;65482;50.240;14.302;2023-08-21T04:13:02;100041.28;;;20.38;76.98
76594;BME280;65482;50.240;14.302;2023-08-21T04:15:27;100041.06;;;20.33;77.34
76594;BME280;65482;50.240;14.302;2023-08-21T04:17:53;100040.66;;;20.29;77.19
76594;BME280;65482;50.240;14.302;2023-08-21T04:20:22;100035.75;;;20.26;77.34
76594;BME280;65482;50.240;14.302;2023-08-21T04:22:48;100039.69;;;20.23;77.39
76594;BME280;65482;50.240;14.302;2023-08-21T04:25:14;100042.34;;;20.23;77.43
76594;BME280;65482;50.240;14.302;2023-08-21T04:27:39;100042.13;;;20.25;77.35
76594;BME280;65482;50.240;14.302;2023-08-21T04:30:07;100041.09;;;20.26;77.15
76594;BME280;65482;50.240;14.302;2023-08-21T04:32:33;100049.09;;;20.33;76.84
76594;BME280;65482;50.240;14.302;2023-08-21T04:34:58;100054.06;;;20.36;76.69
76594;BME280;65482;50.240;14.302;2023-08-21T04:37:24;100055.28;;;20.40;76.59
76594;BME280;65482;50.240;14.302;2023-08-21T04:39:50;100057.75;;;20.41;76.57
76594;BME280;65482;50.240;14.302;2023-08-21T04:42:16;100068.03;;;20.44;76.47
76594;BME280;65482;50.240;14.302;2023-08-21T04:44:42;100074.81;;;20.47;76.54
76594;BME280;65482;50.240;14.302;2023-08-21T04:47:20;100077.28;;;20.49;76.17
76594;BME280;65482;50.240;14.302;2023-08-21T04:49:48;100072.13;;;20.47;76.27
76594;BME280;65482;50.240;14.302;2023-08-21T04:52:14;100077.91;;;20.51;76.16
76594;BME280;65482;50.240;14.302;2023-08-21T04:54:39;100079.75;;;20.50;76.08
76594;BME280;65482;50.240;14.302;2023-08-21T04:57:06;100075.41;;;20.56;76.00
76594;BME280;65482;50.240;14.302;2023-08-21T04:59:32;100077.28;;;20.62;75.80
76594;BME280;65482;50.240;14.302;2023-08-21T05:01:57;100084.25;;;20.70;75.43
76594;BME280;65482;50.240;14.302;2023-08-21T05:04:23;100086.03;;;20.82;74.82
76594;BME280;65482;50.240;14.302;2023-08-21T05:06:48;100081.28;;;20.91;74.56
76594;BME280;65482;50.240;14.302;2023-08-21T05:09:14;100080.41;;;20.97;74.21
76594;BME280;65482;50.240;14.302;2023-08-21T05:11:40;100085.53;;;21.05;74.11
76594;BME280;65482;50.240;14.302;2023-08-21T05:14:06;100091.63;;;21.19;73.80
76594;BME280;65482;50.240;14.302;2023-08-21T05:16:32;100098.56;;;21.34;73.35
76594;BME280;65482;50.240;14.302;2023-08-21T05:18:57;100093.56;;;21.44;72.92
76594;BME280;65482;50.240;14.302;2023-08-21T05:21:23;100095.09;;;21.58;72.60
76594;BME280;65482;50.240;14.302;2023-08-21T05:23:49;100102.22;;;21.71;72.15
76594;BME280;65482;50.240;14.302;2023-08-21T05:26:14;100105.25;;;21.81;71.81
76594;BME280;65482;50.240;14.302;2023-08-21T05:28:42;100096.91;;;21.90;71.80
76594;BME280;65482;50.240;14.302;2023-08-21T05:31:07;100105.94;;;21.95;71.45
76594;BME280;65482;50.240;14.302;2023-08-21T05:33:33;100110.34;;;22.08;71.19
76594;BME280;65482;50.240;14.302;2023-08-21T05:35:59;100108.59;;;22.20;70.68
76594;BME280;65482;50.240;14.302;2023-08-21T05:38:26;100107.88;;;22.32;70.36
76594;BME280;65482;50.240;14.302;2023-08-21T05:40:55;100113.81;;;22.40;70.05
76594;BME280;65482;50.240;14.302;2023-08-21T05:43:21;100110.81;;;22.49;69.63
76594;BME280;65482;50.240;14.302;2023-08-21T05:45:46;100097.59;;;22.47;70.02
76594;BME280;65482;50.240;14.302;2023-08-21T05:48:13;100099.47;;;22.47;70.10
76594;BME280;65482;50.240;14.302;2023-08-21T05:50:39;100104.84;;;22.47;70.22
76594;BME280;65482;50.240;14.302;2023-08-21T05:53:05;100111.41;;;22.51;70.10
76594;BME280;65482;50.240;14.302;2023-08-21T05:55:30;100109.22;;;22.59;70.01
76594;BME280;65482;50.240;14.302;2023-08-21T05:57:56;100115.78;;;22.82;69.45
76594;BME280;65482;50.240;14.302;2023-08-21T06:00:22;100118.38;;;23.07;68.42
76594;BME280;65482;50.240;14.302;2023-08-21T06:02:47;100122.63;;;23.15;68.38
76594;BME280;65482;50.240;14.302;2023-08-21T06:05:13;100121.84;;;23.26;68.15
76594;BME280;65482;50.240;14.302;2023-08-21T06:07:39;100120.72;;;23.34;67.78
76594;BME280;65482;50.240;14.302;2023-08-21T06:10:09;100124.03;;;23.48;67.36
76594;BME280;65482;50.240;14.302;2023-08-21T06:12:39;100115.47;;;23.51;67.19
76594;BME280;65482;50.240;14.302;2023-08-21T06:15:05;100120.19;;;23.67;66.72
76594;BME280;65482;50.240;14.302;2023-08-21T06:17:35;100119.59;;;23.65;67.24
76594;BME280;65482;50.240;14.302;2023-08-21T06:20:00;100116.66;;;23.67;67.25
76594;BME280;65482;50.240;14.302;2023-08-21T06:22:26;100119.59;;;23.77;66.72
76594;BME280;65482;50.240;14.302;2023-08-21T06:24:52;100117.31;;;23.92;66.39
76594;BME280;65482;50.240;14.302;2023-08-21T06:27:17;100121.28;;;24.25;65.63
76594;BME280;65482;50.240;14.302;2023-08-21T06:29:43;100123.97;;;25.01;63.71
76594;BME280;65482;50.240;14.302;2023-08-21T06:32:09;100117.34;;;25.54;61.77
76594;BME280;65482;50.240;14.302;2023-08-21T06:34:34;100116.97;;;25.63;61.09
76594;BME280;65482;50.240;14.302;2023-08-21T06:37:00;100123.03;;;25.70;61.08
76594;BME280;65482;50.240;14.302;2023-08-21T06:39:26;100123.78;;;25.65;61.36
76594;BME280;65482;50.240;14.302;2023-08-21T06:41:52;100125.06;;;25.79;60.74
76594;BME280;65482;50.240;14.302;2023-08-21T06:44:17;100125.06;;;25.79;60.75
76594;BME280;65482;50.240;14.302;2023-08-21T06:46:43;100122.69;;;26.00;59.47
76594;BME280;65482;50.240;14.302;2023-08-21T06:49:09;100117.72;;;26.09;59.45
76594;BME280;65482;50.240;14.302;2023-08-21T06:51:35;100122.59;;;26.29;59.04
76594;BME280;65482;50.240;14.302;2023-08-21T06:54:01;100120.34;;;26.43;59.10
76594;BME280;65482;50.240;14.302;2023-08-21T06:56:27;100121.25;;;26.70;58.19
76594;BME280;65482;50.240;14.302;2023-08-21T06:58:52;100120.69;;;26.90;57.58
76594;BME280;65482;50.240;14.302;2023-08-21T07:01:21;100124.16;;;27.13;57.14
76594;BME280;65482;50.240;14.302;2023-08-21T07:03:46;100119.41;;;27.52;55.38
76594;BME280;65482;50.240;14.302;2023-08-21T07:06:12;100112.72;;;27.65;53.48
76594;BME280;65482;50.240;14.302;2023-08-21T07:08:38;100121.44;;;28.05;52.70
76594;BME280;65482;50.240;14.302;2023-08-21T07:11:06;100122.06;;;28.17;52.69
76594;BME280;65482;50.240;14.302;2023-08-21T07:13:34;100124.75;;;28.12;52.65
76594;BME280;65482;50.240;14.302;2023-08-21T07:16:00;100117.44;;;28.12;52.84
76594;BME280;65482;50.240;14.302;2023-08-21T07:18:29;100126.66;;;28.64;50.74
76594;BME280;65482;50.240;14.302;2023-08-21T07:20:55;100122.41;;;30.58;46.88
76594;BME280;65482;50.240;14.302;2023-08-21T07:23:20;100128.50;;;31.74;44.30
76594;BME280;65482;50.240;14.302;2023-08-21T07:25:46;100121.41;;;33.17;41.39
76594;BME280;65482;50.240;14.302;2023-08-21T07:28:12;100130.84;;;35.01;37.83
76594;BME280;65482;50.240;14.302;2023-08-21T07:30:38;100127.34;;;35.69;36.02
76594;BME280;65482;50.240;14.302;2023-08-21T07:33:04;100125.91;;;35.71;35.97
76594;BME280;65482;50.240;14.302;2023-08-21T07:35:32;100127.25;;;34.78;37.80
76594;BME280;65482;50.240;14.302;2023-08-21T07:37:58;100134.72;;;35.82;36.10
76594;BME280;65482;50.240;14.302;2023-08-21T07:40:24;100124.56;;;37.06;34.14
76594;BME280;65482;50.240;14.302;2023-08-21T07:42:50;100128.41;;;38.22;32.29
76594;BME280;65482;50.240;14.302;2023-08-21T07:45:17;100129.94;;;39.00;30.82
76594;BME280;65482;50.240;14.302;2023-08-21T07:47:42;100120.09;;;39.78;29.95
76594;BME280;65482;50.240;14.302;2023-08-21T07:50:08;100118.88;;;40.37;28.77
76594;BME280;65482;50.240;14.302;2023-08-21T07:52:35;100124.63;;;40.81;28.12
76594;BME280;65482;50.240;14.302;2023-08-21T07:55:02;100130.31;;;41.57;26.85
76594;BME280;65482;50.240;14.302;2023-08-21T07:57:29;100125.41;;;41.98;25.61
76594;BME280;65482;50.240;14.302;2023-08-21T08:00:03;100126.00;;;41.44;27.23
76594;BME280;65482;50.240;14.302;2023-08-21T08:02:35;100121.34;;;42.08;26.23
76594;BME280;65482;50.240;14.302;2023-08-21T08:05:03;100123.94;;;41.41;27.00
76594;BME280;65482;50.240;14.302;2023-08-21T08:07:30;100114.53;;;39.32;29.29
76594;BME280;65482;50.240;14.302;2023-08-21T08:09:57;100113.88;;;37.48;32.01
76594;BME280;65482;50.240;14.302;2023-08-21T08:12:23;100116.75;;;36.56;33.52
76594;BME280;65482;50.240;14.302;2023-08-21T08:14:53;100117.00;;;35.43;35.60
76594;BME280;65482;50.240;14.302;2023-08-21T08:17:20;100115.03;;;34.34;37.94
76594;BME280;65482;50.240;14.302;2023-08-21T08:19:47;100110.97;;;33.71;39.30
76594;BME280;65482;50.240;14.302;2023-08-21T08:22:14;100115.69;;;35.40;36.08
76594;BME280;65482;50.240;14.302;2023-08-21T08:24:41;100109.22;;;36.88;33.69
76594;BME280;65482;50.240;14.302;2023-08-21T08:27:07;100112.06;;;37.78;32.35
76594;BME280;65482;50.240;14.302;2023-08-21T08:29:33;100112.91;;;38.47;30.67
76594;BME280;65482;50.240;14.302;2023-08-21T08:31:58;100125.06;;;38.46;30.95
76594;BME280;65482;50.240;14.302;2023-08-21T08:34:26;100117.84;;;38.63;30.17
76594;BME280;65482;50.240;14.302;2023-08-21T08:36:54;100118.44;;;38.98;30.11
76594;BME280;65482;50.240;14.302;2023-08-21T08:39:22;100113.25;;;39.51;29.47
76594;BME280;65482;50.240;14.302;2023-08-21T08:41:56;100116.69;;;39.93;29.06
76594;BME280;65482;50.240;14.302;2023-08-21T08:44:25;100114.41;;;39.95;28.98
76594;BME280;65482;50.240;14.302;2023-08-21T08:46:54;100120.84;;;40.00;28.53
76594;BME280;65482;50.240;14.302;2023-08-21T08:49:22;100115.66;;;39.98;28.87
76594;BME280;65482;50.240;14.302;2023-08-21T08:51:51;100119.56;;;39.97;28.71
76594;BME280;65482;50.240;14.302;2023-08-21T08:54:22;100115.03;;;39.68;29.22
76594;BME280;65482;50.240;14.302;2023-08-21T08:56:50;100113.44;;;39.12;30.32
76594;BME280;65482;50.240;14.302;2023-08-21T08:59:17;100114.78;;;38.64;31.00
76594;BME280;65482;50.240;14.302;2023-08-21T09:01:43;100113.47;;;38.62;31.10
76594;BME280;65482;50.240;14.302;2023-08-21T09:04:11;100112.91;;;38.98;30.30
76594;BME280;65482;50.240;14.302;2023-08-21T09:06:37;100110.91;;;38.27;30.74
76594;BME280;65482;50.240;14.302;2023-08-21T09:09:03;100104.47;;;37.58;31.94
76594;BME280;65482;50.240;14.302;2023-08-21T09:11:30;100101.38;;;37.77;32.07
76594;BME280;65482;50.240;14.302;2023-08-21T09:13:58;100097.53;;;37.69;31.77
76594;BME280;65482;50.240;14.302;2023-08-21T09:16:25;100099.00;;;38.05;31.17
76594;BME280;65482;50.240;14.302;2023-08-21T09:18:53;100095.44;;;37.49;31.41
76594;BME280;65482;50.240;14.302;2023-08-21T09:21:21;100088.50;;;37.34;31.53
76594;BME280;65482;50.240;14.302;2023-08-21T09:23:48;100093.13;;;36.55;32.71
76594;BME280;65482;50.240;14.302;2023-08-21T09:26:19;100092.50;;;36.09;33.40
76594;BME280;65482;50.240;14.302;2023-08-21T09:28:48;100093.19;;;35.52;34.90
76594;BME280;65482;50.240;14.302;2023-08-21T09:31:15;100089.56;;;34.98;35.87
76594;BME280;65482;50.240;14.302;2023-08-21T09:33:41;100091.34;;;34.80;36.02
76594;BME280;65482;50.240;14.302;2023-08-21T09:36:09;100092.06;;;34.44;36.64
76594;BME280;65482;50.240;14.302;2023-08-21T09:38:39;100087.31;;;34.36;37.28
76594;BME280;65482;50.240;14.302;2023-08-21T09:41:05;100089.16;;;34.26;37.43
76594;BME280;65482;50.240;14.302;2023-08-21T09:43:31;100082.94;;;34.49;37.02
76594;BME280;65482;50.240;14.302;2023-08-21T09:45:59;100084.56;;;34.36;37.02
76594;BME280;65482;50.240;14.302;2023-08-21T09:48:26;100088.94;;;34.51;36.96
76594;BME280;65482;50.240;14.302;2023-08-21T09:50:55;100077.38;;;34.26;36.74
76594;BME280;65482;50.240;14.302;2023-08-21T09:53:22;100076.28;;;34.27;37.52
76594;BME280;65482;50.240;14.302;2023-08-21T09:55:53;100080.31;;;34.30;37.48
76594;BME280;65482;50.240;14.302;2023-08-21T09:58:20;100073.44;;;34.32;37.54
76594;BME280;65482;50.240;14.302;2023-08-21T10:00:48;100075.63;;;34.44;36.97
76594;BME280;65482;50.240;14.302;2023-08-21T10:03:18;100073.81;;;34.39;37.10
76594;BME280;65482;50.240;14.302;2023-08-21T10:05:44;100078.06;;;34.45;37.40
76594;BME280;65482;50.240;14.302;2023-08-21T10:08:15;100083.31;;;34.56;37.59
76594;BME280;65482;50.240;14.302;2023-08-21T10:10:41;100079.88;;;34.64;37.02
76594;BME280;65482;50.240;14.302;2023-08-21T10:13:08;100072.88;;;34.72;36.80
76594;BME280;65482;50.240;14.302;2023-08-21T10:15:36;100069.13;;;34.67;36.41
76594;BME280;65482;50.240;14.302;2023-08-21T10:18:30;100071.97;;;34.62;36.54
76594;BME280;65482;50.240;14.302;2023-08-21T10:21:14;100072.28;;;34.61;36.37
76594;BME280;65482;50.240;14.302;2023-08-21T10:23:40;100062.66;;;34.50;36.98
76594;BME280;65482;50.240;14.302;2023-08-21T10:26:07;100068.47;;;34.48;37.31
76594;BME280;65482;50.240;14.302;2023-08-21T10:28:49;100069.25;;;34.49;36.91
76594;BME280;65482;50.240;14.302;2023-08-21T10:31:39;100063.38;;;34.41;36.08
76594;BME280;65482;50.240;14.302;2023-08-21T10:34:12;100063.50;;;34.36;36.84
76594;BME280;65482;50.240;14.302;2023-08-21T10:36:39;100056.81;;;34.15;36.71
76594;BME280;65482;50.240;14.302;2023-08-21T10:39:24;100055.69;;;33.55;37.75
76594;BME280;65482;50.240;14.302;2023-08-21T10:41:54;100041.44;;;33.25;39.38
76594;BME280;65482;50.240;14.302;2023-08-21T10:44:48;100044.47;;;33.24;38.98
76594;BME280;65482;50.240;14.302;2023-08-21T10:47:32;100042.91;;;33.37;38.17
76594;BME280;65482;50.240;14.302;2023-08-21T10:50:06;100042.41;;;33.35;39.17
76594;BME280;65482;50.240;14.302;2023-08-21T10:52:40;100044.13;;;33.44;39.89
76594;BME280;65482;50.240;14.302;2023-08-21T10:55:12;100043.50;;;33.66;38.30
76594;BME280;65482;50.240;14.302;2023-08-21T10:57:39;100049.78;;;33.67;38.34
76594;BME280;65482;50.240;14.302;2023-08-21T11:00:09;100046.41;;;33.70;37.06
76594;BME280;65482;50.240;14.302;2023-08-21T11:02:38;100049.63;;;33.58;36.99
76594;BME280;65482;50.240;14.302;2023-08-21T11:05:05;100037.34;;;33.42;37.76
76594;BME280;65482;50.240;14.302;2023-08-21T11:07:43;100045.53;;;33.42;37.99
76594;BME280;65482;50.240;14.302;2023-08-21T11:10:11;100040.47;;;33.35;38.35
76594;BME280;65482;50.240;14.302;2023-08-21T11:12:48;100040.94;;;33.23;37.98
76594;BME280;65482;50.240;14.302;2023-08-21T11:15:16;100037.06;;;33.24;37.54
76594;BME280;65482;50.240;14.302;2023-08-21T11:18:03;100036.59;;;33.03;37.69
76594;BME280;65482;50.240;14.302;2023-08-21T11:20:33;100038.69;;;32.74;38.25
76594;BME280;65482;50.240;14.302;2023-08-21T11:23:01;100037.88;;;32.73;37.95
76594;BME280;65482;50.240;14.302;2023-08-21T11:25:29;100029.81;;;32.82;38.01
76594;BME280;65482;50.240;14.302;2023-08-21T11:27:55;100027.47;;;32.75;38.13
76594;BME280;65482;50.240;14.302;2023-08-21T11:30:23;100034.13;;;32.69;37.41
76594;BME280;65482;50.240;14.302;2023-08-21T11:33:13;100029.31;;;32.37;38.08
76594;BME280;65482;50.240;14.302;2023-08-21T11:35:40;100024.19;;;32.11;39.33
76594;BME280;65482;50.240;14.302;2023-08-21T11:38:13;100014.50;;;32.00;38.75
76594;BME280;65482;50.240;14.302;2023-08-21T11:40:39;100028.41;;;31.98;39.32
76594;BME280;65482;50.240;14.302;2023-08-21T11:43:04;100020.38;;;32.12;39.78
76594;BME280;65482;50.240;14.302;2023-08-21T11:45:35;100026.44;;;32.28;38.43
76594;BME280;65482;50.240;14.302;2023-08-21T11:48:01;100019.06;;;32.28;37.83
76594;BME280;65482;50.240;14.302;2023-08-21T11:50:28;100026.06;;;32.35;38.11
76594;BME280;65482;50.240;14.302;2023-08-21T11:52:55;100018.13;;;32.38;37.92
76594;BME280;65482;50.240;14.302;2023-08-21T11:55:22;100019.44;;;32.41;37.97
76594;BME280;65482;50.240;14.302;2023-08-21T11:57:52;100015.25;;;32.48;37.82
76594;BME280;65482;50.240;14.302;2023-08-21T12:00:26;100012.78;;;32.47;36.94
76594;BME280;65482;50.240;14.302;2023-08-21T12:03:00;100008.00;;;32.39;37.23
76594;BME280;65482;50.240;14.302;2023-08-21T12:05:27;100018.06;;;32.43;37.97
76594;BME280;65482;50.240;14.302;2023-08-21T12:07:54;100006.53;;;32.46;37.72
76594;BME280;65482;50.240;14.302;2023-08-21T12:10:26;100009.25;;;32.46;37.73
76594;BME280;65482;50.240;14.302;2023-08-21T12:12:52;100005.88;;;32.36;37.36
76594;BME280;65482;50.240;14.302;2023-08-21T12:15:19;100007.19;;;32.19;36.94
76594;BME280;65482;50.240;14.302;2023-08-21T12:17:45;100002.88;;;32.13;37.54
76594;BME280;65482;50.240;14.302;2023-08-21T12:20:11;99997.22;;;32.28;37.17
76594;BME280;65482;50.240;14.302;2023-08-21T12:22:37;99998.34;;;32.27;37.54
76594;BME280;65482;50.240;14.302;2023-08-21T12:25:05;99991.09;;;32.37;37.54
76594;BME280;65482;50.240;14.302;2023-08-21T12:27:31;99996.50;;;32.42;37.08
76594;BME280;65482;50.240;14.302;2023-08-21T12:29:56;99991.03;;;32.42;36.35
76594;BME280;65482;50.240;14.302;2023-08-21T12:32:22;99986.25;;;32.53;37.24
76594;BME280;65482;50.240;14.302;2023-08-21T12:34:48;99989.75;;;32.58;37.36
76594;BME280;65482;50.240;14.302;2023-08-21T12:37:14;99979.50;;;32.69;36.98
76594;BME280;65482;50.240;14.302;2023-08-21T12:39:40;99982.50;;;32.67;36.58
76594;BME280;65482;50.240;14.302;2023-08-21T12:42:06;99986.50;;;32.56;36.53
76594;BME280;65482;50.240;14.302;2023-08-21T12:44:33;99976.59;;;32.41;37.26